UZ-0100 weather

Khatyrchi Northwest Airport
Khatyrchi, Samarqand, Uzbekistan

Public forecast

Using degrees Celsius for public forecast. Weather courtesy of forecast.io.

Closest aviation weather report (METAR) to Khatyrchi Northwest Airport

Closest report is Navoi Airport, 35.2 nm (65.2 km) W. Retrieved 2020/07/02 11:30 UTC (28 minutes ago):

UTSA 021130Z 34012KT 9999 NSC 32/M05 Q1012 R25/CLRD70 NOSIG

Closest aviation forecast (TAF) to Khatyrchi Northwest Airport

Closest forecast is Navoi Airport, 35.2 nm (65.2 km) W. Retrieved 2020/07/02 06:09 UTC (6 hours ago):

TAF UTSA 020501Z 0206/0306 34010KT 7000 NSC TEMPO 0206/0215 02014G24KT 4000 -DS TEMPO 0215/0224 VRB03KT